createdAt,value
2022-11-16T00:00:49.355Z,26.50
2022-11-16T00:03:52.617Z,26.23
2022-11-16T00:06:54.917Z,26.23
2022-11-16T00:09:57.116Z,25.88
2022-11-16T00:12:59.549Z,25.05
2022-11-16T00:16:02.009Z,27.77
2022-11-16T00:19:05.037Z,27.13
2022-11-16T00:22:07.257Z,26.88
2022-11-16T00:25:09.844Z,27.90
2022-11-16T00:28:12.363Z,26.98
2022-11-16T00:31:14.902Z,26.67
2022-11-16T00:34:17.282Z,25.20
2022-11-16T00:37:19.437Z,25.45
2022-11-16T00:40:21.944Z,27.50
2022-11-16T00:43:24.808Z,26.13
2022-11-16T00:46:27.316Z,24.23
2022-11-16T00:49:29.585Z,25.43
2022-11-16T00:52:31.960Z,25.05
2022-11-16T00:55:34.847Z,26.88
2022-11-16T00:58:38.583Z,25.40
2022-11-16T01:01:44.073Z,25.63
2022-11-16T01:04:46.460Z,26.37
2022-11-16T01:07:48.955Z,24.65
2022-11-16T01:10:51.213Z,24.27
2022-11-16T01:13:54.186Z,25.52
2022-11-16T01:16:56.381Z,26.20
2022-11-16T01:19:58.542Z,23.43
2022-11-16T01:23:01.077Z,27.13
2022-11-16T01:26:03.673Z,27.08
2022-11-16T01:29:09.652Z,26.23
2022-11-16T01:32:16.578Z,25.75
2022-11-16T01:35:19.833Z,23.83
2022-11-16T01:38:27.116Z,25.48
2022-11-16T01:41:32.458Z,26.67
2022-11-16T01:44:38.384Z,25.67
2022-11-16T01:47:48.221Z,24.92
2022-11-16T01:50:55.183Z,26.10
2022-11-16T01:53:58.531Z,24.08
2022-11-16T01:57:02.080Z,25.25
2022-11-16T02:00:11.310Z,23.00
2022-11-16T02:03:19.080Z,24.58
2022-11-16T02:06:30.582Z,24.63
2022-11-16T02:09:54.067Z,23.23
2022-11-16T02:12:59.741Z,22.90
2022-11-16T02:16:13.609Z,22.15
2022-11-16T02:19:21.752Z,23.73
2022-11-16T02:22:24.174Z,21.83
2022-11-16T02:25:29.589Z,21.48
2022-11-16T02:28:37.954Z,27.25
2022-11-16T02:31:50.091Z,28.50
2022-11-16T02:34:52.291Z,29.10
2022-11-16T02:37:56.479Z,28.90
2022-11-16T02:41:01.823Z,27.02
2022-11-16T02:44:12.132Z,27.33
2022-11-16T02:47:17.941Z,26.17
2022-11-16T02:50:23.361Z,24.75
2022-11-16T02:53:27.501Z,24.93
2022-11-16T02:56:49.751Z,25.10
2022-11-16T02:59:56.687Z,24.70
2022-11-16T03:03:00.813Z,23.40
2022-11-16T03:06:11.525Z,23.98
2022-11-16T03:09:17.280Z,22.27
2022-11-16T03:12:22.640Z,22.83
2022-11-16T03:15:24.987Z,23.02
2022-11-16T03:18:29.104Z,22.55
2022-11-16T03:21:47.260Z,23.63
2022-11-16T03:24:49.530Z,24.20
2022-11-16T03:27:58.288Z,23.70
2022-11-16T03:31:27.102Z,23.08
2022-11-16T03:34:32.249Z,23.65
2022-11-16T03:37:35.626Z,22.15
2022-11-16T03:40:39.493Z,24.07
2022-11-16T03:43:42.267Z,21.70
2022-11-16T03:46:45.420Z,22.55
2022-11-16T03:49:49.324Z,24.20
2022-11-16T03:52:53.853Z,23.40
2022-11-16T03:55:56.103Z,24.17
2022-11-16T03:58:58.799Z,23.90
2022-11-16T04:02:01.307Z,24.80
2022-11-16T04:05:22.359Z,23.65
2022-11-16T04:08:43.321Z,23.55
2022-11-16T04:12:06.264Z,21.90
2022-11-16T04:15:28.455Z,23.33
2022-11-16T04:18:49.465Z,21.75
2022-11-16T04:22:12.248Z,23.38
2022-11-16T04:25:18.329Z,23.70
2022-11-16T04:28:22.659Z,23.23
2022-11-16T04:31:46.278Z,23.88
2022-11-16T04:35:07.283Z,22.60
2022-11-16T04:38:10.151Z,24.05
2022-11-16T04:41:32.826Z,22.98
2022-11-16T04:44:54.295Z,23.77
2022-11-16T04:47:59.379Z,23.67
2022-11-16T04:51:05.925Z,24.08
2022-11-16T04:54:09.428Z,24.48
2022-11-16T04:57:12.026Z,24.20
2022-11-16T05:00:15.312Z,25.10
2022-11-16T05:03:17.582Z,22.88
2022-11-16T05:06:20.298Z,23.77
2022-11-16T05:09:23.603Z,24.73
2022-11-16T05:12:26.999Z,23.65
2022-11-16T05:15:33.535Z,24.20
2022-11-16T05:18:36.618Z,22.90
2022-11-16T05:21:39.778Z,24.20
2022-11-16T05:24:44.480Z,23.90
2022-11-16T05:27:46.932Z,23.08
2022-11-16T05:30:49.498Z,22.73
2022-11-16T05:33:56.376Z,23.35
2022-11-16T05:36:59.419Z,24.13
2022-11-16T05:40:02.063Z,23.13
2022-11-16T05:43:14.827Z,25.83
2022-11-16T05:46:26.290Z,22.47
2022-11-16T05:49:31.164Z,23.63
2022-11-16T05:52:33.998Z,23.85
2022-11-16T05:55:41.082Z,21.60
2022-11-16T05:58:44.064Z,22.95
2022-11-16T06:01:47.269Z,22.87
2022-11-16T06:04:49.410Z,24.65
2022-11-16T06:07:51.958Z,23.77
2022-11-16T06:10:54.449Z,23.17
2022-11-16T06:13:56.986Z,24.35
2022-11-16T06:16:59.596Z,23.30
2022-11-16T06:20:01.948Z,23.20
2022-11-16T06:23:04.846Z,24.02
2022-11-16T06:26:08.013Z,24.67
2022-11-16T06:29:22.018Z,23.35
2022-11-16T06:32:25.587Z,24.40
2022-11-16T06:35:30.222Z,24.05
2022-11-16T06:38:33.386Z,24.83
2022-11-16T06:41:41.369Z,23.63
2022-11-16T06:44:47.031Z,22.67
2022-11-16T06:47:51.744Z,23.37
2022-11-16T06:50:56.738Z,24.73
2022-11-16T06:54:34.411Z,24.67
2022-11-16T06:57:48.960Z,28.65
2022-11-16T07:00:53.689Z,28.40
2022-11-16T07:03:57.966Z,27.30
2022-11-16T07:07:01.150Z,26.50
2022-11-16T07:10:05.271Z,27.05
2022-11-16T07:13:08.622Z,25.80
2022-11-16T07:16:13.980Z,24.08
2022-11-16T07:19:21.642Z,24.03
2022-11-16T07:22:25.444Z,23.95
2022-11-16T07:25:29.330Z,23.33
2022-11-16T07:28:34.644Z,23.27
2022-11-16T07:31:38.025Z,23.17
2022-11-16T07:35:10.435Z,23.23
2022-11-16T07:38:18.027Z,22.15
2022-11-16T07:41:22.012Z,22.88
2022-11-16T07:44:34.146Z,23.85
2022-11-16T07:47:41.406Z,24.50
2022-11-16T07:50:48.961Z,25.87
2022-11-16T07:53:53.548Z,27.08
2022-11-16T07:56:56.772Z,25.17
2022-11-16T08:00:01.151Z,25.45
2022-11-16T08:03:24.395Z,26.08
2022-11-16T08:06:30.920Z,24.80
2022-11-16T08:09:39.917Z,24.80
2022-11-16T08:12:55.029Z,24.00
2022-11-16T08:16:08.899Z,25.25
2022-11-16T08:19:14.109Z,25.40
2022-11-16T08:22:16.830Z,29.00
2022-11-16T08:25:20.603Z,27.58
2022-11-16T08:28:23.373Z,25.92
2022-11-16T08:31:28.649Z,25.80
2022-11-16T08:34:40.797Z,25.92
2022-11-16T08:37:43.182Z,23.80
2022-11-16T08:40:46.023Z,24.83
2022-11-16T08:43:50.624Z,24.95
2022-11-16T08:46:55.163Z,21.30
2022-11-16T08:50:05.034Z,22.63
2022-11-16T08:53:10.873Z,22.70
2022-11-16T08:56:13.831Z,22.52
2022-11-16T08:59:22.442Z,22.50
2022-11-16T09:02:29.653Z,21.38
2022-11-16T09:05:32.953Z,21.42
2022-11-16T09:08:37.788Z,23.10
2022-11-16T09:11:40.402Z,21.77
2022-11-16T09:14:50.663Z,22.90
2022-11-16T09:17:55.857Z,21.00
2022-11-16T09:20:58.276Z,22.00
2022-11-16T09:24:04.557Z,21.70
2022-11-16T09:27:10.165Z,21.10
2022-11-16T09:30:18.009Z,21.50
2022-11-16T09:33:25.701Z,22.45
2022-11-16T09:39:49.998Z,20.57
2022-11-16T09:42:52.693Z,19.60
2022-11-16T09:46:15.395Z,20.70
2022-11-16T09:49:29.171Z,20.52
2022-11-16T09:52:41.037Z,21.00
2022-11-16T09:55:48.094Z,20.53
2022-11-16T09:59:07.711Z,22.48
2022-11-16T10:02:28.815Z,24.90
2022-11-16T10:05:31.342Z,23.65
2022-11-16T10:08:36.454Z,23.52
2022-11-16T10:11:44.665Z,23.33
2022-11-16T10:15:04.929Z,24.02
2022-11-16T10:18:17.346Z,24.42
2022-11-16T10:21:25.387Z,23.20
2022-11-16T10:24:29.865Z,23.13
2022-11-16T10:27:48.506Z,21.93
2022-11-16T10:31:01.043Z,23.95
2022-11-16T10:34:06.822Z,22.10
2022-11-16T10:37:12.966Z,22.17
2022-11-16T10:40:18.036Z,22.40
2022-11-16T10:43:26.169Z,21.10
2022-11-16T10:46:37.193Z,22.63
2022-11-16T10:49:54.493Z,21.98
2022-11-16T10:53:02.013Z,20.73
2022-11-16T10:56:52.834Z,21.38
2022-11-16T10:59:58.652Z,21.90
2022-11-16T11:03:01.043Z,22.92
2022-11-16T11:06:04.703Z,22.13
2022-11-16T11:09:25.575Z,21.15
2022-11-16T11:12:40.559Z,21.75
2022-11-16T11:15:43.114Z,20.17
2022-11-16T11:18:46.340Z,21.95
2022-11-16T11:21:49.204Z,25.08
2022-11-16T11:24:53.263Z,22.65
2022-11-16T11:28:16.618Z,22.77
2022-11-16T11:31:30.587Z,23.70
2022-11-16T11:34:41.962Z,22.00
2022-11-16T11:37:48.001Z,23.60
2022-11-16T11:45:15.648Z,21.80
2022-11-16T11:48:49.480Z,21.50
2022-11-16T11:51:57.771Z,20.80
2022-11-16T11:55:01.811Z,21.83
2022-11-16T11:58:06.976Z,20.40
2022-11-16T12:01:28.587Z,20.52
2022-11-16T12:04:50.663Z,20.57
2022-11-16T12:08:08.987Z,22.08
2022-11-16T12:11:11.191Z,22.15
2022-11-16T12:14:35.374Z,21.52
2022-11-16T12:17:57.896Z,21.77
2022-11-16T12:21:21.087Z,21.53
2022-11-16T12:24:23.578Z,22.63
2022-11-16T12:27:47.440Z,22.13
2022-11-16T12:31:00.321Z,21.40
2022-11-16T12:34:21.401Z,20.40
2022-11-16T12:37:34.467Z,22.23
2022-11-16T12:40:36.803Z,21.48
2022-11-16T12:43:48.624Z,23.08
2022-11-16T12:46:59.934Z,21.90
2022-11-16T12:50:05.597Z,22.45
2022-11-16T12:53:36.958Z,22.07
2022-11-16T12:56:56.444Z,23.65
2022-11-16T13:00:12.146Z,22.55
2022-11-16T13:03:18.490Z,21.92
2022-11-16T13:06:27.958Z,22.17
2022-11-16T13:09:36.348Z,20.03
2022-11-16T13:12:39.534Z,21.52
2022-11-16T13:15:42.715Z,20.77
2022-11-16T13:18:45.370Z,20.80
2022-11-16T13:21:55.961Z,20.85
2022-11-16T13:25:28.056Z,19.53
2022-11-16T13:28:36.417Z,20.60
2022-11-16T13:31:53.066Z,20.25
2022-11-16T13:34:55.814Z,20.85
2022-11-16T13:37:58.076Z,21.13
2022-11-16T13:41:19.054Z,19.93
2022-11-16T13:44:21.301Z,20.10
2022-11-16T13:47:28.134Z,19.23
2022-11-16T13:50:38.356Z,18.98
2022-11-16T13:57:20.223Z,16.53
2022-11-16T14:00:24.194Z,18.15
2022-11-16T14:03:29.256Z,19.23
2022-11-16T14:06:31.805Z,18.60
2022-11-16T14:09:43.991Z,20.33
2022-11-16T14:12:53.897Z,21.33
2022-11-16T14:16:15.541Z,21.65
2022-11-16T14:19:37.250Z,22.13
2022-11-16T14:22:40.081Z,20.85
2022-11-16T14:26:15.242Z,21.88
2022-11-16T14:29:23.561Z,20.63
2022-11-16T14:32:28.939Z,20.42
2022-11-16T14:35:34.367Z,21.33
2022-11-16T14:38:42.951Z,20.77
2022-11-16T14:41:47.072Z,21.20
2022-11-16T14:44:49.964Z,21.50
2022-11-16T14:47:53.547Z,19.42
2022-11-16T14:50:59.869Z,20.25
2022-11-16T14:54:04.796Z,20.23
2022-11-16T14:57:11.891Z,20.30
2022-11-16T15:00:18.058Z,19.37
2022-11-16T15:03:22.071Z,19.52
2022-11-16T15:06:25.407Z,19.35
2022-11-16T15:09:36.432Z,20.05
2022-11-16T15:12:42.136Z,19.73
2022-11-16T15:15:45.171Z,19.80
2022-11-16T15:19:00.881Z,18.05
2022-11-16T15:22:04.358Z,19.67
2022-11-16T15:25:06.868Z,18.25
2022-11-16T15:28:20.554Z,17.67
2022-11-16T15:31:23.388Z,17.83
2022-11-16T15:34:25.649Z,19.30
2022-11-16T15:37:30.962Z,17.73
2022-11-16T15:40:34.077Z,17.15
2022-11-16T15:43:45.014Z,17.33
2022-11-16T15:46:54.439Z,17.30
2022-11-16T15:49:57.010Z,16.45
2022-11-16T15:53:00.090Z,17.27
2022-11-16T15:56:03.554Z,14.68
2022-11-16T15:59:13.471Z,16.27
2022-11-16T16:02:18.398Z,17.77
2022-11-16T16:05:32.103Z,15.20
2022-11-16T16:08:38.271Z,16.63
2022-11-16T16:11:40.606Z,17.98
2022-11-16T16:14:43.208Z,16.83
2022-11-16T16:17:48.888Z,16.13
2022-11-16T16:20:51.138Z,16.90
2022-11-16T16:23:54.351Z,16.80
2022-11-16T16:26:56.550Z,17.23
2022-11-16T16:30:02.442Z,17.92
2022-11-16T16:33:05.496Z,16.97
2022-11-16T16:36:08.123Z,18.83
2022-11-16T16:39:10.336Z,19.85
2022-11-16T16:42:13.810Z,19.38
2022-11-16T16:45:18.971Z,21.58
2022-11-16T16:48:21.291Z,20.70
2022-11-16T16:51:23.709Z,20.52
2022-11-16T16:54:26.168Z,19.65
2022-11-16T16:57:28.451Z,19.02
2022-11-16T17:00:30.741Z,19.67
2022-11-16T17:03:33.581Z,21.53
2022-11-16T17:06:36.033Z,21.80
2022-11-16T17:09:38.559Z,23.42
2022-11-16T17:12:41.762Z,23.90
2022-11-16T17:15:44.307Z,23.90
2022-11-16T17:18:47.389Z,24.33
2022-11-16T17:21:51.053Z,24.00
2022-11-16T17:24:53.391Z,25.08
2022-11-16T17:27:55.575Z,25.88
2022-11-16T17:31:08.445Z,25.50
2022-11-16T17:34:13.792Z,25.30
2022-11-16T17:37:17.049Z,27.45
2022-11-16T17:40:19.533Z,25.75
2022-11-16T17:43:21.870Z,23.08
2022-11-16T17:46:26.200Z,27.15
2022-11-16T17:49:28.553Z,24.87
2022-11-16T17:52:31.002Z,26.38
2022-11-16T17:55:33.331Z,25.13
2022-11-16T17:58:35.591Z,23.77
2022-11-16T18:01:38.106Z,26.20
2022-11-16T18:04:40.400Z,27.73
2022-11-16T18:07:42.679Z,26.65
2022-11-16T18:10:46.195Z,25.50
2022-11-16T18:13:51.569Z,24.95
2022-11-16T18:16:53.849Z,24.00
2022-11-16T18:19:56.171Z,23.83
2022-11-16T18:22:59.274Z,24.42
2022-11-16T18:26:03.483Z,24.00
2022-11-16T18:29:06.772Z,23.88
2022-11-16T18:32:09.528Z,23.75
2022-11-16T18:35:11.999Z,24.97
2022-11-16T18:38:14.847Z,24.77
2022-11-16T18:41:17.310Z,25.00
2022-11-16T18:44:19.716Z,24.63
2022-11-16T18:47:22.062Z,24.13
2022-11-16T18:50:26.988Z,24.53
2022-11-16T18:53:33.355Z,23.77
2022-11-16T18:56:36.271Z,23.27
2022-11-16T18:59:38.558Z,22.80
2022-11-16T19:02:41.113Z,23.90
2022-11-16T19:05:43.806Z,22.57
2022-11-16T19:08:53.778Z,25.33
2022-11-16T19:11:57.488Z,23.38
2022-11-16T19:14:59.876Z,24.58
2022-11-16T19:18:20.572Z,24.55
2022-11-16T19:21:24.439Z,24.53
2022-11-16T19:24:26.792Z,27.10
2022-11-16T19:27:29.777Z,27.90
2022-11-16T19:30:32.172Z,28.40
2022-11-16T19:33:35.040Z,27.27
2022-11-16T19:36:37.729Z,25.03
2022-11-16T19:39:40.531Z,24.95
2022-11-16T19:42:43.480Z,24.13
2022-11-16T19:45:49.595Z,23.00
2022-11-16T19:48:52.396Z,23.15
2022-11-16T19:51:54.802Z,25.30
2022-11-16T19:54:57.337Z,23.73
2022-11-16T19:57:59.782Z,23.83
2022-11-16T20:01:06.563Z,23.15
2022-11-16T20:04:09.424Z,24.95
2022-11-16T20:07:13.495Z,23.00
2022-11-16T20:10:16.292Z,21.20
2022-11-16T20:13:18.660Z,21.27
2022-11-16T20:16:23.409Z,21.88
2022-11-16T20:19:25.811Z,20.77
2022-11-16T20:22:28.321Z,20.03
2022-11-16T20:25:30.558Z,21.77
2022-11-16T20:28:36.824Z,19.50
2022-11-16T20:31:42.521Z,19.13
2022-11-16T20:34:44.833Z,21.00
2022-11-16T20:37:47.116Z,21.47
2022-11-16T20:40:49.378Z,20.40
2022-11-16T20:43:52.953Z,21.23
2022-11-16T20:46:55.214Z,20.00
2022-11-16T20:49:58.854Z,18.80
2022-11-16T20:53:01.206Z,20.37
2022-11-16T20:56:04.056Z,18.75
2022-11-16T20:59:06.380Z,20.67
2022-11-16T21:02:10.029Z,19.27
2022-11-16T21:05:12.376Z,20.45
2022-11-16T21:08:14.609Z,20.90
2022-11-16T21:11:21.678Z,20.80
2022-11-16T21:14:23.922Z,18.77
2022-11-16T21:17:26.169Z,17.58
2022-11-16T21:20:28.882Z,19.05
2022-11-16T21:23:32.412Z,21.03
2022-11-16T21:26:35.186Z,20.55
2022-11-16T21:29:37.352Z,19.52
2022-11-16T21:32:39.621Z,18.52
2022-11-16T21:35:41.812Z,20.05
2022-11-16T21:38:44.465Z,19.37
2022-11-16T21:41:46.718Z,21.00
2022-11-16T21:44:48.929Z,19.90
2022-11-16T21:47:51.160Z,20.95
2022-11-16T21:51:00.296Z,20.27
2022-11-16T21:54:02.549Z,21.67
2022-11-16T21:57:04.779Z,24.77
2022-11-16T22:00:07.227Z,23.17
2022-11-16T22:03:13.706Z,22.42
2022-11-16T22:06:34.696Z,21.85
2022-11-16T22:09:37.335Z,22.80
2022-11-16T22:12:39.906Z,22.27
2022-11-16T22:15:42.436Z,22.60
2022-11-16T22:18:44.768Z,21.50
2022-11-16T22:21:46.925Z,23.23
2022-11-16T22:24:49.205Z,23.83
2022-11-16T22:28:19.081Z,22.38
2022-11-16T22:31:14.701Z,22.63
2022-11-16T22:34:16.889Z,21.15
2022-11-16T22:37:19.125Z,22.60
2022-11-16T22:40:21.385Z,20.10
2022-11-16T22:43:27.774Z,21.33
2022-11-16T22:46:29.986Z,20.92
2022-11-16T22:49:32.141Z,22.20
2022-11-16T22:52:34.335Z,21.77
2022-11-16T22:55:37.271Z,20.73
2022-11-16T22:58:40.009Z,20.73
2022-11-16T23:01:42.254Z,19.58
2022-11-16T23:04:44.446Z,20.35
2022-11-16T23:07:46.581Z,20.35
2022-11-16T23:11:07.369Z,17.63
2022-11-16T23:14:29.742Z,18.50
2022-11-16T23:17:32.162Z,17.85
2022-11-16T23:20:53.145Z,15.80
2022-11-16T23:24:24.279Z,17.23
2022-11-16T23:27:30.839Z,16.73
2022-11-16T23:30:33.975Z,16.75
2022-11-16T23:33:45.191Z,16.70
2022-11-16T23:36:47.343Z,16.70
2022-11-16T23:39:49.625Z,16.73
2022-11-16T23:43:10.886Z,16.33
2022-11-16T23:46:13.056Z,16.90
2022-11-16T23:49:15.177Z,18.05
2022-11-16T23:52:17.350Z,18.60
2022-11-16T23:55:19.527Z,18.85
2022-11-16T23:58:21.694Z,18.90
